sensor_id;sensor_type;location;lat;lon;timestamp;P1;durP1;ratioP1;P2;durP2;ratioP2
56455;SDS011;42354;53.218;6.564;2023-05-01T00:02:03;11.50;;;4.53;;
56455;SDS011;42354;53.218;6.564;2023-05-01T00:04:28;14.48;;;4.95;;
56455;SDS011;42354;53.218;6.564;2023-05-01T00:06:55;11.48;;;5.15;;
56455;SDS011;42354;53.218;6.564;2023-05-01T00:09:21;13.65;;;5.28;;
56455;SDS011;42354;53.218;6.564;2023-05-01T00:11:47;11.68;;;4.57;;
56455;SDS011;42354;53.218;6.564;2023-05-01T00:14:12;11.30;;;4.95;;
56455;SDS011;42354;53.218;6.564;2023-05-01T00:16:38;14.30;;;5.13;;
56455;SDS011;42354;53.218;6.564;2023-05-01T00:19:03;14.38;;;5.85;;
56455;SDS011;42354;53.218;6.564;2023-05-01T00:21:29;10.02;;;5.40;;
56455;SDS011;42354;53.218;6.564;2023-05-01T00:23:55;14.20;;;5.30;;
56455;SDS011;42354;53.218;6.564;2023-05-01T00:26:20;17.08;;;5.78;;
56455;SDS011;42354;53.218;6.564;2023-05-01T00:28:46;9.32;;;4.65;;
56455;SDS011;42354;53.218;6.564;2023-05-01T00:31:12;12.10;;;5.22;;
56455;SDS011;42354;53.218;6.564;2023-05-01T00:33:37;13.48;;;6.30;;
56455;SDS011;42354;53.218;6.564;2023-05-01T00:36:03;13.70;;;7.07;;
56455;SDS011;42354;53.218;6.564;2023-05-01T00:38:28;12.63;;;6.20;;
56455;SDS011;42354;53.218;6.564;2023-05-01T00:40:53;13.73;;;6.50;;
56455;SDS011;42354;53.218;6.564;2023-05-01T00:43:19;16.75;;;8.70;;
56455;SDS011;42354;53.218;6.564;2023-05-01T00:45:45;19.05;;;9.30;;
56455;SDS011;42354;53.218;6.564;2023-05-01T00:48:10;18.25;;;9.48;;
56455;SDS011;42354;53.218;6.564;2023-05-01T00:50:36;20.45;;;12.65;;
56455;SDS011;42354;53.218;6.564;2023-05-01T00:53:02;25.90;;;12.75;;
56455;SDS011;42354;53.218;6.564;2023-05-01T00:55:28;21.67;;;13.65;;
56455;SDS011;42354;53.218;6.564;2023-05-01T00:57:55;24.95;;;15.18;;
56455;SDS011;42354;53.218;6.564;2023-05-01T01:00:21;22.30;;;13.02;;
56455;SDS011;42354;53.218;6.564;2023-05-01T01:02:48;18.55;;;11.75;;
56455;SDS011;42354;53.218;6.564;2023-05-01T01:05:14;16.27;;;8.38;;
56455;SDS011;42354;53.218;6.564;2023-05-01T01:07:43;15.85;;;7.65;;
56455;SDS011;42354;53.218;6.564;2023-05-01T01:16:38;12.80;;;5.93;;
56455;SDS011;42354;53.218;6.564;2023-05-01T01:18:51;12.88;;;6.38;;
56455;SDS011;42354;53.218;6.564;2023-05-01T01:21:37;13.30;;;7.55;;
56455;SDS011;42354;53.218;6.564;2023-05-01T01:32:59;24.30;;;13.07;;
56455;SDS011;42354;53.218;6.564;2023-05-01T01:35:33;24.08;;;10.88;;
56455;SDS011;42354;53.218;6.564;2023-05-01T01:38:06;17.08;;;9.52;;
56455;SDS011;42354;53.218;6.564;2023-05-01T01:40:46;19.02;;;9.25;;
56455;SDS011;42354;53.218;6.564;2023-05-01T01:43:19;16.98;;;6.78;;
56455;SDS011;42354;53.218;6.564;2023-05-01T01:45:47;13.68;;;6.60;;
56455;SDS011;42354;53.218;6.564;2023-05-01T01:48:16;18.13;;;6.45;;
56455;SDS011;42354;53.218;6.564;2023-05-01T01:50:47;13.50;;;5.95;;
56455;SDS011;42354;53.218;6.564;2023-05-01T01:53:15;13.30;;;5.88;;
56455;SDS011;42354;53.218;6.564;2023-05-01T01:55:42;15.32;;;6.50;;
56455;SDS011;42354;53.218;6.564;2023-05-01T01:58:09;12.90;;;5.70;;
56455;SDS011;42354;53.218;6.564;2023-05-01T02:00:37;16.63;;;6.03;;
56455;SDS011;42354;53.218;6.564;2023-05-01T02:03:07;13.60;;;6.10;;
56455;SDS011;42354;53.218;6.564;2023-05-01T02:05:34;19.80;;;7.30;;
56455;SDS011;42354;53.218;6.564;2023-05-01T02:08:01;19.67;;;7.80;;
56455;SDS011;42354;53.218;6.564;2023-05-01T02:10:29;19.20;;;8.25;;
56455;SDS011;42354;53.218;6.564;2023-05-01T02:12:56;23.17;;;9.30;;
56455;SDS011;42354;53.218;6.564;2023-05-01T02:15:24;15.10;;;8.55;;
56455;SDS011;42354;53.218;6.564;2023-05-01T02:17:52;18.13;;;7.93;;
56455;SDS011;42354;53.218;6.564;2023-05-01T02:20:18;15.93;;;8.10;;
56455;SDS011;42354;53.218;6.564;2023-05-01T02:22:45;13.43;;;7.25;;
56455;SDS011;42354;53.218;6.564;2023-05-01T02:25:12;20.77;;;7.05;;
56455;SDS011;42354;53.218;6.564;2023-05-01T02:27:39;16.40;;;7.60;;
56455;SDS011;42354;53.218;6.564;2023-05-01T02:30:37;12.55;;;6.50;;
56455;SDS011;42354;53.218;6.564;2023-05-01T02:33:03;14.68;;;6.88;;
56455;SDS011;42354;53.218;6.564;2023-05-01T02:35:31;13.73;;;6.40;;
56455;SDS011;42354;53.218;6.564;2023-05-01T02:37:56;13.40;;;6.43;;
56455;SDS011;42354;53.218;6.564;2023-05-01T02:40:21;9.88;;;5.68;;
56455;SDS011;42354;53.218;6.564;2023-05-01T02:42:48;12.48;;;5.97;;
56455;SDS011;42354;53.218;6.564;2023-05-01T02:45:19;12.55;;;6.03;;
56455;SDS011;42354;53.218;6.564;2023-05-01T02:47:53;14.10;;;6.18;;
56455;SDS011;42354;53.218;6.564;2023-05-01T02:50:21;18.65;;;6.57;;
56455;SDS011;42354;53.218;6.564;2023-05-01T02:52:48;12.35;;;6.00;;
56455;SDS011;42354;53.218;6.564;2023-05-01T02:55:15;19.13;;;6.65;;
56455;SDS011;42354;53.218;6.564;2023-05-01T02:57:42;17.17;;;6.43;;
56455;SDS011;42354;53.218;6.564;2023-05-01T03:00:08;15.07;;;6.78;;
56455;SDS011;42354;53.218;6.564;2023-05-01T03:02:37;13.30;;;6.00;;
56455;SDS011;42354;53.218;6.564;2023-05-01T03:05:06;14.15;;;5.95;;
56455;SDS011;42354;53.218;6.564;2023-05-01T03:07:31;14.15;;;6.22;;
56455;SDS011;42354;53.218;6.564;2023-05-01T03:10:05;13.00;;;5.38;;
56455;SDS011;42354;53.218;6.564;2023-05-01T03:12:31;16.70;;;6.70;;
56455;SDS011;42354;53.218;6.564;2023-05-01T03:14:57;14.52;;;6.07;;
56455;SDS011;42354;53.218;6.564;2023-05-01T03:17:23;15.88;;;7.10;;
56455;SDS011;42354;53.218;6.564;2023-05-01T03:19:48;12.30;;;6.78;;
56455;SDS011;42354;53.218;6.564;2023-05-01T03:22:14;17.13;;;6.57;;
56455;SDS011;42354;53.218;6.564;2023-05-01T03:24:40;13.60;;;6.38;;
56455;SDS011;42354;53.218;6.564;2023-05-01T03:27:05;11.68;;;6.50;;
56455;SDS011;42354;53.218;6.564;2023-05-01T03:29:31;17.45;;;6.32;;
56455;SDS011;42354;53.218;6.564;2023-05-01T03:31:58;14.20;;;6.53;;
56455;SDS011;42354;53.218;6.564;2023-05-01T03:34:24;13.77;;;6.28;;
56455;SDS011;42354;53.218;6.564;2023-05-01T03:36:49;16.52;;;6.30;;
56455;SDS011;42354;53.218;6.564;2023-05-01T03:39:14;12.35;;;6.80;;
56455;SDS011;42354;53.218;6.564;2023-05-01T03:41:40;14.10;;;6.35;;
56455;SDS011;42354;53.218;6.564;2023-05-01T03:44:05;13.70;;;6.28;;
56455;SDS011;42354;53.218;6.564;2023-05-01T03:46:31;16.55;;;6.90;;
56455;SDS011;42354;53.218;6.564;2023-05-01T03:48:56;12.25;;;6.93;;
56455;SDS011;42354;53.218;6.564;2023-05-01T03:51:21;12.13;;;7.05;;
56455;SDS011;42354;53.218;6.564;2023-05-01T03:53:47;17.33;;;7.15;;
56455;SDS011;42354;53.218;6.564;2023-05-01T03:56:12;15.95;;;7.40;;
56455;SDS011;42354;53.218;6.564;2023-05-01T03:58:37;19.73;;;7.43;;
56455;SDS011;42354;53.218;6.564;2023-05-01T04:01:03;14.13;;;7.30;;
56455;SDS011;42354;53.218;6.564;2023-05-01T04:03:28;17.60;;;7.28;;
56455;SDS011;42354;53.218;6.564;2023-05-01T04:05:54;16.02;;;7.35;;
56455;SDS011;42354;53.218;6.564;2023-05-01T04:08:19;16.77;;;7.45;;
56455;SDS011;42354;53.218;6.564;2023-05-01T04:10:46;17.90;;;7.70;;
56455;SDS011;42354;53.218;6.564;2023-05-01T04:13:11;18.63;;;7.65;;
56455;SDS011;42354;53.218;6.564;2023-05-01T04:15:37;17.92;;;7.00;;
56455;SDS011;42354;53.218;6.564;2023-05-01T04:18:03;18.33;;;7.13;;
56455;SDS011;42354;53.218;6.564;2023-05-01T04:20:28;18.40;;;8.05;;
56455;SDS011;42354;53.218;6.564;2023-05-01T04:22:54;13.63;;;6.85;;
56455;SDS011;42354;53.218;6.564;2023-05-01T04:25:19;18.20;;;7.88;;
56455;SDS011;42354;53.218;6.564;2023-05-01T04:27:44;18.60;;;8.05;;
56455;SDS011;42354;53.218;6.564;2023-05-01T04:30:10;17.23;;;7.13;;
56455;SDS011;42354;53.218;6.564;2023-05-01T04:32:36;17.23;;;7.05;;
56455;SDS011;42354;53.218;6.564;2023-05-01T04:35:01;19.17;;;8.13;;
56455;SDS011;42354;53.218;6.564;2023-05-01T04:37:27;16.00;;;7.60;;
56455;SDS011;42354;53.218;6.564;2023-05-01T04:39:52;18.50;;;7.68;;
56455;SDS011;42354;53.218;6.564;2023-05-01T04:42:19;19.80;;;8.00;;
56455;SDS011;42354;53.218;6.564;2023-05-01T04:44:44;16.27;;;7.40;;
56455;SDS011;42354;53.218;6.564;2023-05-01T04:47:11;17.50;;;7.20;;
56455;SDS011;42354;53.218;6.564;2023-05-01T04:49:36;20.60;;;8.05;;
56455;SDS011;42354;53.218;6.564;2023-05-01T04:52:02;18.10;;;7.30;;
56455;SDS011;42354;53.218;6.564;2023-05-01T04:54:28;13.25;;;7.25;;
56455;SDS011;42354;53.218;6.564;2023-05-01T04:56:53;16.63;;;7.50;;
56455;SDS011;42354;53.218;6.564;2023-05-01T04:59:18;15.38;;;6.72;;
56455;SDS011;42354;53.218;6.564;2023-05-01T05:01:44;15.55;;;7.53;;
56455;SDS011;42354;53.218;6.564;2023-05-01T05:04:09;17.05;;;7.45;;
56455;SDS011;42354;53.218;6.564;2023-05-01T05:06:35;18.23;;;7.75;;
56455;SDS011;42354;53.218;6.564;2023-05-01T05:09:00;15.63;;;7.47;;
56455;SDS011;42354;53.218;6.564;2023-05-01T05:11:25;16.45;;;7.85;;
56455;SDS011;42354;53.218;6.564;2023-05-01T05:13:51;15.90;;;7.10;;
56455;SDS011;42354;53.218;6.564;2023-05-01T05:16:17;12.52;;;7.05;;
56455;SDS011;42354;53.218;6.564;2023-05-01T05:18:42;17.60;;;7.47;;
56455;SDS011;42354;53.218;6.564;2023-05-01T05:21:08;18.00;;;7.47;;
56455;SDS011;42354;53.218;6.564;2023-05-01T05:23:36;14.38;;;7.28;;
56455;SDS011;42354;53.218;6.564;2023-05-01T05:26:02;14.93;;;7.20;;
56455;SDS011;42354;53.218;6.564;2023-05-01T05:28:27;19.95;;;7.40;;
56455;SDS011;42354;53.218;6.564;2023-05-01T05:30:56;17.85;;;7.35;;
56455;SDS011;42354;53.218;6.564;2023-05-01T05:33:22;16.45;;;7.43;;
56455;SDS011;42354;53.218;6.564;2023-05-01T05:35:49;14.95;;;7.80;;
56455;SDS011;42354;53.218;6.564;2023-05-01T05:38:17;17.67;;;6.47;;
56455;SDS011;42354;53.218;6.564;2023-05-01T05:40:42;19.42;;;7.47;;
56455;SDS011;42354;53.218;6.564;2023-05-01T05:43:08;14.70;;;7.05;;
56455;SDS011;42354;53.218;6.564;2023-05-01T05:45:34;16.02;;;6.95;;
56455;SDS011;42354;53.218;6.564;2023-05-01T05:48:00;14.82;;;7.00;;
56455;SDS011;42354;53.218;6.564;2023-05-01T05:50:28;17.25;;;8.00;;
56455;SDS011;42354;53.218;6.564;2023-05-01T05:52:54;22.17;;;7.40;;
56455;SDS011;42354;53.218;6.564;2023-05-01T05:55:20;14.48;;;7.65;;
56455;SDS011;42354;53.218;6.564;2023-05-01T05:57:45;17.58;;;8.25;;
56455;SDS011;42354;53.218;6.564;2023-05-01T06:00:11;14.68;;;6.93;;
56455;SDS011;42354;53.218;6.564;2023-05-01T06:02:37;17.60;;;6.90;;
56455;SDS011;42354;53.218;6.564;2023-05-01T06:05:02;17.23;;;7.80;;
56455;SDS011;42354;53.218;6.564;2023-05-01T06:07:28;19.27;;;7.20;;
56455;SDS011;42354;53.218;6.564;2023-05-01T06:09:53;18.85;;;7.30;;
56455;SDS011;42354;53.218;6.564;2023-05-01T06:12:19;16.17;;;7.57;;
56455;SDS011;42354;53.218;6.564;2023-05-01T06:14:45;17.88;;;6.85;;
56455;SDS011;42354;53.218;6.564;2023-05-01T06:17:10;16.67;;;7.65;;
56455;SDS011;42354;53.218;6.564;2023-05-01T06:19:36;16.52;;;7.43;;
56455;SDS011;42354;53.218;6.564;2023-05-01T06:22:05;21.08;;;8.52;;
56455;SDS011;42354;53.218;6.564;2023-05-01T06:24:31;16.92;;;7.75;;
56455;SDS011;42354;53.218;6.564;2023-05-01T06:27:00;17.73;;;7.18;;
56455;SDS011;42354;53.218;6.564;2023-05-01T06:29:26;15.95;;;7.20;;
56455;SDS011;42354;53.218;6.564;2023-05-01T06:31:51;14.48;;;7.30;;
56455;SDS011;42354;53.218;6.564;2023-05-01T06:34:17;18.67;;;7.80;;
56455;SDS011;42354;53.218;6.564;2023-05-01T06:36:42;14.60;;;7.50;;
56455;SDS011;42354;53.218;6.564;2023-05-01T06:39:07;15.05;;;7.35;;
56455;SDS011;42354;53.218;6.564;2023-05-01T06:41:33;26.25;;;8.85;;
56455;SDS011;42354;53.218;6.564;2023-05-01T06:44:01;17.30;;;7.35;;
56455;SDS011;42354;53.218;6.564;2023-05-01T06:46:26;17.30;;;7.63;;
56455;SDS011;42354;53.218;6.564;2023-05-01T06:48:52;16.40;;;7.47;;
56455;SDS011;42354;53.218;6.564;2023-05-01T06:51:17;15.75;;;7.35;;
56455;SDS011;42354;53.218;6.564;2023-05-01T06:53:43;19.05;;;8.18;;
56455;SDS011;42354;53.218;6.564;2023-05-01T06:56:08;18.75;;;7.93;;
56455;SDS011;42354;53.218;6.564;2023-05-01T06:58:33;20.60;;;8.20;;
56455;SDS011;42354;53.218;6.564;2023-05-01T07:00:59;21.85;;;7.93;;
56455;SDS011;42354;53.218;6.564;2023-05-01T07:03:24;16.02;;;8.77;;
56455;SDS011;42354;53.218;6.564;2023-05-01T07:05:53;21.02;;;7.82;;
56455;SDS011;42354;53.218;6.564;2023-05-01T07:10:52;17.98;;;9.07;;
56455;SDS011;42354;53.218;6.564;2023-05-01T07:13:18;21.75;;;8.13;;
56455;SDS011;42354;53.218;6.564;2023-05-01T07:15:43;21.85;;;8.70;;
56455;SDS011;42354;53.218;6.564;2023-05-01T07:18:10;24.02;;;9.40;;
56455;SDS011;42354;53.218;6.564;2023-05-01T07:20:36;21.30;;;8.98;;
56455;SDS011;42354;53.218;6.564;2023-05-01T07:23:02;15.05;;;8.00;;
56455;SDS011;42354;53.218;6.564;2023-05-01T07:25:28;16.80;;;7.95;;
56455;SDS011;42354;53.218;6.564;2023-05-01T07:27:53;17.98;;;8.73;;
56455;SDS011;42354;53.218;6.564;2023-05-01T07:30:19;19.50;;;7.32;;
56455;SDS011;42354;53.218;6.564;2023-05-01T07:32:45;17.45;;;7.50;;
56455;SDS011;42354;53.218;6.564;2023-05-01T07:35:10;12.18;;;6.88;;
56455;SDS011;42354;53.218;6.564;2023-05-01T07:37:35;18.95;;;6.97;;
56455;SDS011;42354;53.218;6.564;2023-05-01T07:40:01;12.85;;;6.22;;
56455;SDS011;42354;53.218;6.564;2023-05-01T07:42:27;14.68;;;6.20;;
56455;SDS011;42354;53.218;6.564;2023-05-01T07:44:52;16.27;;;6.97;;
56455;SDS011;42354;53.218;6.564;2023-05-01T07:47:18;11.73;;;5.60;;
56455;SDS011;42354;53.218;6.564;2023-05-01T07:49:43;11.75;;;5.78;;
56455;SDS011;42354;53.218;6.564;2023-05-01T07:52:09;14.32;;;6.03;;
56455;SDS011;42354;53.218;6.564;2023-05-01T07:54:35;12.60;;;5.47;;
56455;SDS011;42354;53.218;6.564;2023-05-01T07:57:00;15.18;;;6.05;;
56455;SDS011;42354;53.218;6.564;2023-05-01T07:59:26;14.75;;;6.15;;
56455;SDS011;42354;53.218;6.564;2023-05-01T08:01:55;13.68;;;6.03;;
56455;SDS011;42354;53.218;6.564;2023-05-01T08:04:20;14.75;;;5.68;;
56455;SDS011;42354;53.218;6.564;2023-05-01T08:06:51;13.23;;;5.75;;
56455;SDS011;42354;53.218;6.564;2023-05-01T08:09:16;13.52;;;5.60;;
56455;SDS011;42354;53.218;6.564;2023-05-01T08:11:42;10.13;;;4.55;;
56455;SDS011;42354;53.218;6.564;2023-05-01T08:14:08;10.95;;;4.10;;
56455;SDS011;42354;53.218;6.564;2023-05-01T08:16:33;8.65;;;3.92;;
56455;SDS011;42354;53.218;6.564;2023-05-01T08:18:59;10.15;;;4.25;;
56455;SDS011;42354;53.218;6.564;2023-05-01T08:21:25;11.70;;;4.15;;
56455;SDS011;42354;53.218;6.564;2023-05-01T08:23:50;9.07;;;4.40;;
56455;SDS011;42354;53.218;6.564;2023-05-01T08:26:16;9.35;;;3.88;;
56455;SDS011;42354;53.218;6.564;2023-05-01T08:28:42;12.10;;;4.43;;
56455;SDS011;42354;53.218;6.564;2023-05-01T08:31:08;10.15;;;4.07;;
56455;SDS011;42354;53.218;6.564;2023-05-01T08:33:33;9.18;;;3.85;;
56455;SDS011;42354;53.218;6.564;2023-05-01T08:35:58;8.77;;;4.30;;
56455;SDS011;42354;53.218;6.564;2023-05-01T08:38:24;8.50;;;3.70;;
56455;SDS011;42354;53.218;6.564;2023-05-01T08:40:50;12.20;;;4.22;;
56455;SDS011;42354;53.218;6.564;2023-05-01T08:43:17;8.70;;;4.20;;
56455;SDS011;42354;53.218;6.564;2023-05-01T08:45:46;8.07;;;3.47;;
56455;SDS011;42354;53.218;6.564;2023-05-01T08:48:12;8.20;;;3.40;;
56455;SDS011;42354;53.218;6.564;2023-05-01T08:50:44;9.07;;;3.83;;
56455;SDS011;42354;53.218;6.564;2023-05-01T08:53:11;11.63;;;3.50;;
56455;SDS011;42354;53.218;6.564;2023-05-01T08:55:41;8.15;;;3.33;;
56455;SDS011;42354;53.218;6.564;2023-05-01T08:58:09;9.63;;;3.33;;
56455;SDS011;42354;53.218;6.564;2023-05-01T09:00:37;8.40;;;3.33;;
56455;SDS011;42354;53.218;6.564;2023-05-01T09:03:04;11.60;;;3.50;;
56455;SDS011;42354;53.218;6.564;2023-05-01T09:05:32;10.98;;;3.13;;
56455;SDS011;42354;53.218;6.564;2023-05-01T09:07:58;8.88;;;3.60;;
56455;SDS011;42354;53.218;6.564;2023-05-01T09:10:24;10.07;;;2.92;;
56455;SDS011;42354;53.218;6.564;2023-05-01T09:12:54;7.32;;;2.92;;
56455;SDS011;42354;53.218;6.564;2023-05-01T09:15:27;10.40;;;3.28;;
56455;SDS011;42354;53.218;6.564;2023-05-01T09:17:55;5.53;;;2.70;;
56455;SDS011;42354;53.218;6.564;2023-05-01T09:20:23;11.60;;;3.03;;
56455;SDS011;42354;53.218;6.564;2023-05-01T09:22:49;6.80;;;2.90;;
56455;SDS011;42354;53.218;6.564;2023-05-01T09:25:15;6.30;;;2.40;;
56455;SDS011;42354;53.218;6.564;2023-05-01T09:27:42;9.82;;;2.58;;
56455;SDS011;42354;53.218;6.564;2023-05-01T09:30:08;7.72;;;3.05;;
56455;SDS011;42354;53.218;6.564;2023-05-01T09:32:34;6.45;;;2.63;;
56455;SDS011;42354;53.218;6.564;2023-05-01T09:37:36;8.13;;;3.08;;
56455;SDS011;42354;53.218;6.564;2023-05-01T09:40:02;8.00;;;2.70;;
56455;SDS011;42354;53.218;6.564;2023-05-01T09:42:47;7.85;;;3.35;;
56455;SDS011;42354;53.218;6.564;2023-05-01T09:45:18;8.70;;;3.50;;
56455;SDS011;42354;53.218;6.564;2023-05-01T09:47:44;10.48;;;3.42;;
56455;SDS011;42354;53.218;6.564;2023-05-01T09:52:55;7.53;;;2.85;;
56455;SDS011;42354;53.218;6.564;2023-05-01T09:55:20;7.32;;;2.65;;
56455;SDS011;42354;53.218;6.564;2023-05-01T09:57:47;6.10;;;2.50;;
56455;SDS011;42354;53.218;6.564;2023-05-01T10:00:13;7.03;;;2.50;;
56455;SDS011;42354;53.218;6.564;2023-05-01T10:02:40;6.93;;;3.00;;
56455;SDS011;42354;53.218;6.564;2023-05-01T10:05:08;7.07;;;2.17;;
56455;SDS011;42354;53.218;6.564;2023-05-01T10:07:34;8.00;;;2.60;;
56455;SDS011;42354;53.218;6.564;2023-05-01T10:10:16;6.45;;;2.33;;
56455;SDS011;42354;53.218;6.564;2023-05-01T10:12:42;10.07;;;2.37;;
56455;SDS011;42354;53.218;6.564;2023-05-01T10:15:08;5.38;;;2.05;;
56455;SDS011;42354;53.218;6.564;2023-05-01T10:17:35;5.68;;;2.13;;
56455;SDS011;42354;53.218;6.564;2023-05-01T10:20:00;3.40;;;1.48;;
56455;SDS011;42354;53.218;6.564;2023-05-01T10:22:26;2.85;;;1.20;;
56455;SDS011;42354;53.218;6.564;2023-05-01T10:24:52;2.63;;;1.40;;
56455;SDS011;42354;53.218;6.564;2023-05-01T10:27:18;6.13;;;1.50;;
56455;SDS011;42354;53.218;6.564;2023-05-01T10:29:46;6.25;;;1.73;;
56455;SDS011;42354;53.218;6.564;2023-05-01T10:32:16;4.97;;;1.80;;
56455;SDS011;42354;53.218;6.564;2023-05-01T10:34:43;5.53;;;1.85;;
56455;SDS011;42354;53.218;6.564;2023-05-01T10:37:14;3.83;;;1.67;;
56455;SDS011;42354;53.218;6.564;2023-05-01T10:39:45;2.20;;;1.30;;
56455;SDS011;42354;53.218;6.564;2023-05-01T10:42:11;3.55;;;1.90;;
56455;SDS011;42354;53.218;6.564;2023-05-01T10:44:39;2.92;;;1.30;;
56455;SDS011;42354;53.218;6.564;2023-05-01T10:50:10;6.57;;;2.33;;
56455;SDS011;42354;53.218;6.564;2023-05-01T10:58:03;7.07;;;2.22;;
56455;SDS011;42354;53.218;6.564;2023-05-01T11:00:28;5.20;;;2.50;;
56455;SDS011;42354;53.218;6.564;2023-05-01T11:08:28;4.67;;;2.17;;
56455;SDS011;42354;53.218;6.564;2023-05-01T11:10:54;4.88;;;2.38;;
56455;SDS011;42354;53.218;6.564;2023-05-01T11:13:43;4.15;;;2.33;;
56455;SDS011;42354;53.218;6.564;2023-05-01T11:21:47;3.65;;;2.20;;
56455;SDS011;42354;53.218;6.564;2023-05-01T11:24:15;6.00;;;2.70;;
56455;SDS011;42354;53.218;6.564;2023-05-01T11:26:42;7.22;;;2.10;;
56455;SDS011;42354;53.218;6.564;2023-05-01T11:29:09;4.53;;;2.13;;
56455;SDS011;42354;53.218;6.564;2023-05-01T11:31:36;8.15;;;2.58;;
56455;SDS011;42354;53.218;6.564;2023-05-01T11:34:03;8.18;;;2.22;;
56455;SDS011;42354;53.218;6.564;2023-05-01T11:36:46;5.22;;;2.45;;
56455;SDS011;42354;53.218;6.564;2023-05-01T11:39:13;6.25;;;2.53;;
56455;SDS011;42354;53.218;6.564;2023-05-01T11:41:41;4.95;;;2.10;;
56455;SDS011;42354;53.218;6.564;2023-05-01T11:44:06;5.47;;;2.10;;
56455;SDS011;42354;53.218;6.564;2023-05-01T11:46:32;3.35;;;1.88;;
56455;SDS011;42354;53.218;6.564;2023-05-01T11:49:01;2.75;;;1.83;;
56455;SDS011;42354;53.218;6.564;2023-05-01T11:51:27;3.85;;;1.65;;
56455;SDS011;42354;53.218;6.564;2023-05-01T11:54:00;5.22;;;2.30;;
56455;SDS011;42354;53.218;6.564;2023-05-01T11:56:30;4.88;;;2.05;;
56455;SDS011;42354;53.218;6.564;2023-05-01T11:58:58;5.40;;;2.00;;
56455;SDS011;42354;53.218;6.564;2023-05-01T12:01:33;3.97;;;1.55;;
56455;SDS011;42354;53.218;6.564;2023-05-01T12:04:00;2.60;;;1.20;;
56455;SDS011;42354;53.218;6.564;2023-05-01T12:06:39;3.20;;;1.50;;
56455;SDS011;42354;53.218;6.564;2023-05-01T12:09:20;4.15;;;1.63;;
56455;SDS011;42354;53.218;6.564;2023-05-01T12:11:48;3.10;;;1.38;;
56455;SDS011;42354;53.218;6.564;2023-05-01T12:14:15;3.10;;;1.55;;
56455;SDS011;42354;53.218;6.564;2023-05-01T12:16:42;3.90;;;1.33;;
56455;SDS011;42354;53.218;6.564;2023-05-01T12:19:08;5.70;;;1.52;;
56455;SDS011;42354;53.218;6.564;2023-05-01T12:21:36;3.72;;;1.60;;
56455;SDS011;42354;53.218;6.564;2023-05-01T12:24:16;4.07;;;1.70;;
56455;SDS011;42354;53.218;6.564;2023-05-01T12:26:43;4.55;;;1.30;;
56455;SDS011;42354;53.218;6.564;2023-05-01T12:29:09;6.22;;;1.75;;
56455;SDS011;42354;53.218;6.564;2023-05-01T12:31:35;4.65;;;1.40;;
56455;SDS011;42354;53.218;6.564;2023-05-01T12:34:09;4.63;;;1.45;;
56455;SDS011;42354;53.218;6.564;2023-05-01T12:36:35;4.00;;;1.60;;
56455;SDS011;42354;53.218;6.564;2023-05-01T12:39:09;5.53;;;1.60;;
56455;SDS011;42354;53.218;6.564;2023-05-01T12:41:43;6.05;;;1.58;;
56455;SDS011;42354;53.218;6.564;2023-05-01T12:44:16;5.63;;;1.75;;
56455;SDS011;42354;53.218;6.564;2023-05-01T12:46:59;4.50;;;1.50;;
56455;SDS011;42354;53.218;6.564;2023-05-01T12:49:26;5.18;;;1.60;;
56455;SDS011;42354;53.218;6.564;2023-05-01T12:51:55;3.28;;;1.95;;
56455;SDS011;42354;53.218;6.564;2023-05-01T12:54:36;6.22;;;1.60;;
56455;SDS011;42354;53.218;6.564;2023-05-01T12:57:07;7.47;;;1.92;;
56455;SDS011;42354;53.218;6.564;2023-05-01T12:59:34;4.55;;;1.55;;
56455;SDS011;42354;53.218;6.564;2023-05-01T13:02:01;3.95;;;1.65;;
56455;SDS011;42354;53.218;6.564;2023-05-01T13:04:29;3.25;;;1.20;;
56455;SDS011;42354;53.218;6.564;2023-05-01T13:06:55;3.78;;;1.38;;
56455;SDS011;42354;53.218;6.564;2023-05-01T13:09:22;3.75;;;1.52;;
56455;SDS011;42354;53.218;6.564;2023-05-01T13:11:55;5.93;;;1.63;;
56455;SDS011;42354;53.218;6.564;2023-05-01T13:14:22;4.18;;;1.58;;
56455;SDS011;42354;53.218;6.564;2023-05-01T13:16:47;3.38;;;1.50;;
56455;SDS011;42354;53.218;6.564;2023-05-01T13:19:13;3.25;;;1.40;;
56455;SDS011;42354;53.218;6.564;2023-05-01T13:21:50;3.17;;;1.73;;
56455;SDS011;42354;53.218;6.564;2023-05-01T13:24:16;6.72;;;1.45;;
56455;SDS011;42354;53.218;6.564;2023-05-01T13:26:41;4.38;;;1.70;;
56455;SDS011;42354;53.218;6.564;2023-05-01T13:29:11;7.72;;;2.13;;
56455;SDS011;42354;53.218;6.564;2023-05-01T13:31:43;5.78;;;2.50;;
56455;SDS011;42354;53.218;6.564;2023-05-01T13:34:09;8.27;;;2.63;;
56455;SDS011;42354;53.218;6.564;2023-05-01T13:36:35;9.70;;;3.00;;
56455;SDS011;42354;53.218;6.564;2023-05-01T13:39:01;6.80;;;2.42;;
56455;SDS011;42354;53.218;6.564;2023-05-01T13:41:27;7.88;;;2.42;;
56455;SDS011;42354;53.218;6.564;2023-05-01T13:43:54;8.77;;;3.05;;
56455;SDS011;42354;53.218;6.564;2023-05-01T13:46:21;6.85;;;2.72;;
56455;SDS011;42354;53.218;6.564;2023-05-01T13:48:48;7.28;;;2.40;;
56455;SDS011;42354;53.218;6.564;2023-05-01T13:51:14;10.00;;;3.08;;
56455;SDS011;42354;53.218;6.564;2023-05-01T13:53:46;7.95;;;3.15;;
56455;SDS011;42354;53.218;6.564;2023-05-01T13:56:11;4.90;;;2.35;;
56455;SDS011;42354;53.218;6.564;2023-05-01T13:58:37;8.45;;;2.20;;
56455;SDS011;42354;53.218;6.564;2023-05-01T14:01:14;6.85;;;2.78;;
56455;SDS011;42354;53.218;6.564;2023-05-01T14:03:41;6.47;;;2.42;;
56455;SDS011;42354;53.218;6.564;2023-05-01T14:06:07;6.25;;;3.05;;
56455;SDS011;42354;53.218;6.564;2023-05-01T14:08:40;6.57;;;2.45;;
56455;SDS011;42354;53.218;6.564;2023-05-01T14:11:08;7.57;;;2.13;;
56455;SDS011;42354;53.218;6.564;2023-05-01T14:13:34;4.75;;;2.35;;
56455;SDS011;42354;53.218;6.564;2023-05-01T14:16:00;7.32;;;2.83;;
56455;SDS011;42354;53.218;6.564;2023-05-01T14:18:31;9.77;;;3.13;;
56455;SDS011;42354;53.218;6.564;2023-05-01T14:20:58;7.32;;;2.60;;
56455;SDS011;42354;53.218;6.564;2023-05-01T14:23:24;6.72;;;2.13;;
56455;SDS011;42354;53.218;6.564;2023-05-01T14:25:51;4.20;;;2.00;;
56455;SDS011;42354;53.218;6.564;2023-05-01T14:28:17;12.23;;;2.25;;
56455;SDS011;42354;53.218;6.564;2023-05-01T14:30:42;2.85;;;2.05;;
56455;SDS011;42354;53.218;6.564;2023-05-01T14:33:11;5.93;;;2.40;;
56455;SDS011;42354;53.218;6.564;2023-05-01T14:35:50;4.68;;;2.55;;
56455;SDS011;42354;53.218;6.564;2023-05-01T14:38:18;7.03;;;2.47;;
56455;SDS011;42354;53.218;6.564;2023-05-01T14:40:45;10.30;;;2.70;;
56455;SDS011;42354;53.218;6.564;2023-05-01T14:43:12;7.90;;;2.53;;
56455;SDS011;42354;53.218;6.564;2023-05-01T14:45:42;4.65;;;3.00;;
56455;SDS011;42354;53.218;6.564;2023-05-01T14:48:10;6.85;;;2.28;;
56455;SDS011;42354;53.218;6.564;2023-05-01T14:50:50;4.95;;;2.80;;
56455;SDS011;42354;53.218;6.564;2023-05-01T14:53:16;8.63;;;2.75;;
56455;SDS011;42354;53.218;6.564;2023-05-01T14:55:42;9.50;;;3.05;;
56455;SDS011;42354;53.218;6.564;2023-05-01T14:58:08;8.60;;;3.15;;
56455;SDS011;42354;53.218;6.564;2023-05-01T15:00:33;8.02;;;3.03;;
56455;SDS011;42354;53.218;6.564;2023-05-01T15:02:59;10.25;;;3.45;;
56455;SDS011;42354;53.218;6.564;2023-05-01T15:05:25;10.18;;;3.85;;
56455;SDS011;42354;53.218;6.564;2023-05-01T15:07:55;8.32;;;4.35;;
56455;SDS011;42354;53.218;6.564;2023-05-01T15:10:20;12.23;;;4.65;;
56455;SDS011;42354;53.218;6.564;2023-05-01T15:12:47;9.48;;;4.50;;
56455;SDS011;42354;53.218;6.564;2023-05-01T15:15:13;13.23;;;5.55;;
56455;SDS011;42354;53.218;6.564;2023-05-01T15:17:38;13.45;;;5.90;;
56455;SDS011;42354;53.218;6.564;2023-05-01T15:20:04;20.35;;;7.20;;
56455;SDS011;42354;53.218;6.564;2023-05-01T15:22:30;14.32;;;6.78;;